sensor_id;sensor_type;location;lat;lon;timestamp;P1;durP1;ratioP1;P2;durP2;ratioP2
11066;SDS011;29763;50.904;5.530;2022-12-05T00:01:16;48.63;;;29.27;;
11066;SDS011;29763;50.904;5.530;2022-12-05T00:03:48;49.73;;;29.27;;
11066;SDS011;29763;50.904;5.530;2022-12-05T00:06:17;53.03;;;29.17;;
11066;SDS011;29763;50.904;5.530;2022-12-05T00:08:44;50.70;;;29.03;;
11066;SDS011;29763;50.904;5.530;2022-12-05T00:11:14;55.07;;;30.93;;
11066;SDS011;29763;50.904;5.530;2022-12-05T00:13:42;51.17;;;30.10;;
11066;SDS011;29763;50.904;5.530;2022-12-05T00:16:10;50.60;;;28.70;;
11066;SDS011;29763;50.904;5.530;2022-12-05T00:18:37;51.37;;;29.00;;
11066;SDS011;29763;50.904;5.530;2022-12-05T00:21:03;51.43;;;28.80;;
11066;SDS011;29763;50.904;5.530;2022-12-05T00:23:30;56.53;;;30.93;;
11066;SDS011;29763;50.904;5.530;2022-12-05T00:25:56;51.87;;;29.20;;
11066;SDS011;29763;50.904;5.530;2022-12-05T00:28:25;50.27;;;29.47;;
11066;SDS011;29763;50.904;5.530;2022-12-05T00:30:51;53.30;;;29.03;;
11066;SDS011;29763;50.904;5.530;2022-12-05T00:33:17;55.80;;;28.93;;
11066;SDS011;29763;50.904;5.530;2022-12-05T00:35:43;51.00;;;29.63;;
11066;SDS011;29763;50.904;5.530;2022-12-05T00:38:08;55.70;;;30.30;;
11066;SDS011;29763;50.904;5.530;2022-12-05T00:40:35;58.80;;;32.20;;
11066;SDS011;29763;50.904;5.530;2022-12-05T00:43:01;59.10;;;31.43;;
11066;SDS011;29763;50.904;5.530;2022-12-05T00:45:26;55.70;;;31.20;;
11066;SDS011;29763;50.904;5.530;2022-12-05T00:47:52;56.53;;;30.80;;
11066;SDS011;29763;50.904;5.530;2022-12-05T00:50:18;59.27;;;31.47;;
11066;SDS011;29763;50.904;5.530;2022-12-05T00:52:44;60.17;;;30.93;;
11066;SDS011;29763;50.904;5.530;2022-12-05T00:55:09;55.83;;;30.40;;
11066;SDS011;29763;50.904;5.530;2022-12-05T00:57:35;58.57;;;32.33;;
11066;SDS011;29763;50.904;5.530;2022-12-05T01:00:02;58.03;;;30.90;;
11066;SDS011;29763;50.904;5.530;2022-12-05T01:02:29;55.73;;;31.07;;
11066;SDS011;29763;50.904;5.530;2022-12-05T01:04:55;57.47;;;31.40;;
11066;SDS011;29763;50.904;5.530;2022-12-05T01:07:21;55.00;;;29.77;;
11066;SDS011;29763;50.904;5.530;2022-12-05T01:09:47;64.83;;;32.33;;
11066;SDS011;29763;50.904;5.530;2022-12-05T01:12:12;58.10;;;30.80;;
11066;SDS011;29763;50.904;5.530;2022-12-05T01:14:38;57.83;;;31.53;;
11066;SDS011;29763;50.904;5.530;2022-12-05T01:17:04;60.63;;;29.83;;
11066;SDS011;29763;50.904;5.530;2022-12-05T01:19:30;61.63;;;32.57;;
11066;SDS011;29763;50.904;5.530;2022-12-05T01:21:57;66.13;;;33.07;;
11066;SDS011;29763;50.904;5.530;2022-12-05T01:24:23;64.47;;;31.00;;
11066;SDS011;29763;50.904;5.530;2022-12-05T01:26:50;63.30;;;30.43;;
11066;SDS011;29763;50.904;5.530;2022-12-05T01:29:17;62.37;;;32.60;;
11066;SDS011;29763;50.904;5.530;2022-12-05T01:31:45;59.10;;;31.57;;
11066;SDS011;29763;50.904;5.530;2022-12-05T01:34:11;58.97;;;30.83;;
11066;SDS011;29763;50.904;5.530;2022-12-05T01:36:39;58.97;;;31.20;;
11066;SDS011;29763;50.904;5.530;2022-12-05T01:39:05;59.53;;;30.10;;
11066;SDS011;29763;50.904;5.530;2022-12-05T01:41:34;57.67;;;30.17;;
11066;SDS011;29763;50.904;5.530;2022-12-05T01:44:06;67.90;;;32.40;;
11066;SDS011;29763;50.904;5.530;2022-12-05T01:46:52;57.87;;;29.87;;
11066;SDS011;29763;50.904;5.530;2022-12-05T01:49:23;61.03;;;31.30;;
11066;SDS011;29763;50.904;5.530;2022-12-05T01:51:54;59.97;;;30.80;;
11066;SDS011;29763;50.904;5.530;2022-12-05T01:54:22;62.80;;;31.67;;
11066;SDS011;29763;50.904;5.530;2022-12-05T01:56:54;60.00;;;30.33;;
11066;SDS011;29763;50.904;5.530;2022-12-05T01:59:33;59.93;;;31.73;;
11066;SDS011;29763;50.904;5.530;2022-12-05T02:02:02;56.57;;;30.10;;
11066;SDS011;29763;50.904;5.530;2022-12-05T02:04:28;57.73;;;30.53;;
11066;SDS011;29763;50.904;5.530;2022-12-05T02:06:55;55.93;;;28.97;;
11066;SDS011;29763;50.904;5.530;2022-12-05T02:09:21;53.97;;;28.83;;
11066;SDS011;29763;50.904;5.530;2022-12-05T02:11:51;52.07;;;28.43;;
11066;SDS011;29763;50.904;5.530;2022-12-05T02:14:27;55.93;;;29.70;;
11066;SDS011;29763;50.904;5.530;2022-12-05T02:17:22;55.57;;;28.87;;
11066;SDS011;29763;50.904;5.530;2022-12-05T02:33:22;61.03;;;30.13;;
11066;SDS011;29763;50.904;5.530;2022-12-05T02:35:54;57.90;;;29.37;;
11066;SDS011;29763;50.904;5.530;2022-12-05T02:38:32;54.40;;;28.67;;
11066;SDS011;29763;50.904;5.530;2022-12-05T02:43:39;52.37;;;27.43;;
11066;SDS011;29763;50.904;5.530;2022-12-05T02:46:10;56.23;;;28.37;;
11066;SDS011;29763;50.904;5.530;2022-12-05T02:48:41;55.90;;;28.90;;
11066;SDS011;29763;50.904;5.530;2022-12-05T02:51:08;52.27;;;27.50;;
11066;SDS011;29763;50.904;5.530;2022-12-05T02:53:36;56.70;;;29.40;;
11066;SDS011;29763;50.904;5.530;2022-12-05T02:56:03;54.77;;;29.23;;
11066;SDS011;29763;50.904;5.530;2022-12-05T02:58:35;57.43;;;29.40;;
11066;SDS011;29763;50.904;5.530;2022-12-05T03:01:05;51.73;;;27.57;;
11066;SDS011;29763;50.904;5.530;2022-12-05T03:03:31;60.27;;;29.47;;
11066;SDS011;29763;50.904;5.530;2022-12-05T03:09:06;59.87;;;28.83;;
11066;SDS011;29763;50.904;5.530;2022-12-05T03:11:49;58.17;;;30.10;;
11066;SDS011;29763;50.904;5.530;2022-12-05T03:14:24;51.80;;;28.13;;
11066;SDS011;29763;50.904;5.530;2022-12-05T03:16:56;56.47;;;28.27;;
11066;SDS011;29763;50.904;5.530;2022-12-05T03:21:59;57.40;;;29.07;;
11066;SDS011;29763;50.904;5.530;2022-12-05T03:24:28;57.10;;;28.90;;
11066;SDS011;29763;50.904;5.530;2022-12-05T03:26:59;57.30;;;28.97;;
11066;SDS011;29763;50.904;5.530;2022-12-05T03:29:35;60.80;;;28.07;;
11066;SDS011;29763;50.904;5.530;2022-12-05T03:38:03;52.83;;;27.70;;
11066;SDS011;29763;50.904;5.530;2022-12-05T03:40:43;53.10;;;27.10;;
11066;SDS011;29763;50.904;5.530;2022-12-05T03:46:02;52.77;;;26.87;;
11066;SDS011;29763;50.904;5.530;2022-12-05T03:51:29;55.87;;;27.30;;
11066;SDS011;29763;50.904;5.530;2022-12-05T03:56:39;55.53;;;27.60;;
11066;SDS011;29763;50.904;5.530;2022-12-05T04:02:00;53.63;;;27.67;;
11066;SDS011;29763;50.904;5.530;2022-12-05T04:04:35;58.20;;;28.07;;
11066;SDS011;29763;50.904;5.530;2022-12-05T04:07:05;54.03;;;28.03;;
11066;SDS011;29763;50.904;5.530;2022-12-05T04:09:34;51.67;;;28.03;;
11066;SDS011;29763;50.904;5.530;2022-12-05T04:12:09;52.07;;;26.23;;
11066;SDS011;29763;50.904;5.530;2022-12-05T04:14:46;51.07;;;26.90;;
11066;SDS011;29763;50.904;5.530;2022-12-05T04:19:52;49.70;;;27.33;;
11066;SDS011;29763;50.904;5.530;2022-12-05T04:22:38;50.83;;;26.53;;
11066;SDS011;29763;50.904;5.530;2022-12-05T04:25:06;55.77;;;27.70;;
11066;SDS011;29763;50.904;5.530;2022-12-05T04:27:55;51.33;;;27.73;;
11066;SDS011;29763;50.904;5.530;2022-12-05T04:30:39;52.53;;;27.47;;
11066;SDS011;29763;50.904;5.530;2022-12-05T04:35:48;55.70;;;28.00;;
11066;SDS011;29763;50.904;5.530;2022-12-05T04:38:24;53.27;;;28.07;;
11066;SDS011;29763;50.904;5.530;2022-12-05T04:40:57;52.90;;;27.87;;
11066;SDS011;29763;50.904;5.530;2022-12-05T04:43:28;52.73;;;27.53;;
11066;SDS011;29763;50.904;5.530;2022-12-05T04:45:57;55.20;;;28.20;;
11066;SDS011;29763;50.904;5.530;2022-12-05T04:48:30;54.00;;;27.57;;
11066;SDS011;29763;50.904;5.530;2022-12-05T04:50:59;50.53;;;27.60;;
11066;SDS011;29763;50.904;5.530;2022-12-05T04:53:28;54.20;;;27.87;;
11066;SDS011;29763;50.904;5.530;2022-12-05T04:55:56;51.70;;;26.87;;
11066;SDS011;29763;50.904;5.530;2022-12-05T04:58:24;54.20;;;28.27;;
11066;SDS011;29763;50.904;5.530;2022-12-05T05:04:18;51.43;;;27.73;;
11066;SDS011;29763;50.904;5.530;2022-12-05T05:06:50;48.53;;;25.87;;
11066;SDS011;29763;50.904;5.530;2022-12-05T05:09:16;51.30;;;27.57;;
11066;SDS011;29763;50.904;5.530;2022-12-05T05:11:41;46.43;;;27.40;;
11066;SDS011;29763;50.904;5.530;2022-12-05T05:14:07;47.27;;;27.33;;
11066;SDS011;29763;50.904;5.530;2022-12-05T05:16:34;46.83;;;26.20;;
11066;SDS011;29763;50.904;5.530;2022-12-05T05:19:02;50.63;;;27.37;;
11066;SDS011;29763;50.904;5.530;2022-12-05T05:21:30;49.13;;;26.53;;
11066;SDS011;29763;50.904;5.530;2022-12-05T05:24:00;46.23;;;25.93;;
11066;SDS011;29763;50.904;5.530;2022-12-05T05:26:27;46.07;;;26.23;;
11066;SDS011;29763;50.904;5.530;2022-12-05T05:28:57;41.73;;;25.13;;
11066;SDS011;29763;50.904;5.530;2022-12-05T05:31:24;43.80;;;25.13;;
11066;SDS011;29763;50.904;5.530;2022-12-05T05:33:50;48.07;;;25.50;;
11066;SDS011;29763;50.904;5.530;2022-12-05T05:36:18;43.57;;;25.40;;
11066;SDS011;29763;50.904;5.530;2022-12-05T05:38:46;41.53;;;25.17;;
11066;SDS011;29763;50.904;5.530;2022-12-05T05:41:13;44.27;;;25.80;;
11066;SDS011;29763;50.904;5.530;2022-12-05T05:43:50;43.77;;;24.07;;
11066;SDS011;29763;50.904;5.530;2022-12-05T05:46:18;40.33;;;24.60;;
11066;SDS011;29763;50.904;5.530;2022-12-05T05:48:45;45.43;;;25.40;;
11066;SDS011;29763;50.904;5.530;2022-12-05T05:51:11;41.97;;;25.87;;
11066;SDS011;29763;50.904;5.530;2022-12-05T05:53:38;42.30;;;25.10;;
11066;SDS011;29763;50.904;5.530;2022-12-05T05:56:05;38.83;;;24.37;;
11066;SDS011;29763;50.904;5.530;2022-12-05T05:58:37;44.53;;;25.03;;
11066;SDS011;29763;50.904;5.530;2022-12-05T06:01:04;39.80;;;24.87;;
11066;SDS011;29763;50.904;5.530;2022-12-05T06:03:32;37.40;;;23.43;;
11066;SDS011;29763;50.904;5.530;2022-12-05T06:05:58;38.40;;;23.63;;
11066;SDS011;29763;50.904;5.530;2022-12-05T06:08:29;39.80;;;24.10;;
11066;SDS011;29763;50.904;5.530;2022-12-05T06:10:56;39.07;;;23.90;;
11066;SDS011;29763;50.904;5.530;2022-12-05T06:13:22;36.23;;;22.63;;
11066;SDS011;29763;50.904;5.530;2022-12-05T06:15:48;36.80;;;23.20;;
11066;SDS011;29763;50.904;5.530;2022-12-05T06:18:13;38.23;;;24.10;;
11066;SDS011;29763;50.904;5.530;2022-12-05T06:20:42;36.33;;;22.40;;
11066;SDS011;29763;50.904;5.530;2022-12-05T06:23:20;36.63;;;23.20;;
11066;SDS011;29763;50.904;5.530;2022-12-05T06:25:52;37.50;;;23.33;;
11066;SDS011;29763;50.904;5.530;2022-12-05T06:28:20;36.37;;;23.67;;
11066;SDS011;29763;50.904;5.530;2022-12-05T06:30:47;35.90;;;22.50;;
11066;SDS011;29763;50.904;5.530;2022-12-05T06:36:00;37.77;;;23.87;;
11066;SDS011;29763;50.904;5.530;2022-12-05T06:38:36;38.87;;;23.50;;
11066;SDS011;29763;50.904;5.530;2022-12-05T06:41:06;36.60;;;23.70;;
11066;SDS011;29763;50.904;5.530;2022-12-05T06:43:33;37.13;;;23.07;;
11066;SDS011;29763;50.904;5.530;2022-12-05T06:46:06;36.60;;;23.17;;
11066;SDS011;29763;50.904;5.530;2022-12-05T06:48:33;34.73;;;22.57;;
11066;SDS011;29763;50.904;5.530;2022-12-05T06:51:02;37.93;;;23.97;;
11066;SDS011;29763;50.904;5.530;2022-12-05T06:53:28;37.13;;;22.80;;
11066;SDS011;29763;50.904;5.530;2022-12-05T06:56:01;38.57;;;23.33;;
11066;SDS011;29763;50.904;5.530;2022-12-05T06:58:29;39.20;;;22.97;;
11066;SDS011;29763;50.904;5.530;2022-12-05T07:00:55;36.60;;;22.90;;
11066;SDS011;29763;50.904;5.530;2022-12-05T07:04:01;38.27;;;23.27;;
11066;SDS011;29763;50.904;5.530;2022-12-05T07:06:33;37.63;;;24.40;;
11066;SDS011;29763;50.904;5.530;2022-12-05T07:09:28;35.50;;;23.37;;
11066;SDS011;29763;50.904;5.530;2022-12-05T07:12:13;34.80;;;22.73;;
11066;SDS011;29763;50.904;5.530;2022-12-05T07:14:41;37.83;;;23.50;;
11066;SDS011;29763;50.904;5.530;2022-12-05T07:17:07;36.23;;;22.87;;
11066;SDS011;29763;50.904;5.530;2022-12-05T07:19:33;36.17;;;23.73;;
11066;SDS011;29763;50.904;5.530;2022-12-05T07:22:02;40.50;;;23.83;;
11066;SDS011;29763;50.904;5.530;2022-12-05T07:24:28;40.10;;;23.67;;
11066;SDS011;29763;50.904;5.530;2022-12-05T07:27:03;41.70;;;23.30;;
11066;SDS011;29763;50.904;5.530;2022-12-05T07:29:32;39.00;;;23.20;;
11066;SDS011;29763;50.904;5.530;2022-12-05T07:31:58;41.70;;;23.73;;
11066;SDS011;29763;50.904;5.530;2022-12-05T07:34:23;38.50;;;23.73;;
11066;SDS011;29763;50.904;5.530;2022-12-05T07:36:55;45.83;;;24.73;;
11066;SDS011;29763;50.904;5.530;2022-12-05T07:39:21;46.00;;;24.27;;
11066;SDS011;29763;50.904;5.530;2022-12-05T07:41:47;43.53;;;24.47;;
11066;SDS011;29763;50.904;5.530;2022-12-05T07:44:12;38.17;;;24.00;;
11066;SDS011;29763;50.904;5.530;2022-12-05T07:46:38;38.47;;;24.27;;
11066;SDS011;29763;50.904;5.530;2022-12-05T07:49:07;38.67;;;23.93;;
11066;SDS011;29763;50.904;5.530;2022-12-05T07:51:33;42.00;;;24.90;;
11066;SDS011;29763;50.904;5.530;2022-12-05T07:54:00;39.27;;;25.37;;
11066;SDS011;29763;50.904;5.530;2022-12-05T07:56:26;45.07;;;25.63;;
11066;SDS011;29763;50.904;5.530;2022-12-05T07:58:52;43.00;;;26.40;;
11066;SDS011;29763;50.904;5.530;2022-12-05T08:01:22;42.40;;;25.40;;
11066;SDS011;29763;50.904;5.530;2022-12-05T08:03:51;39.37;;;24.63;;
11066;SDS011;29763;50.904;5.530;2022-12-05T08:06:22;43.97;;;25.80;;
11066;SDS011;29763;50.904;5.530;2022-12-05T08:08:50;41.17;;;26.03;;
11066;SDS011;29763;50.904;5.530;2022-12-05T08:11:18;44.07;;;24.67;;
11066;SDS011;29763;50.904;5.530;2022-12-05T08:13:46;45.27;;;25.60;;
11066;SDS011;29763;50.904;5.530;2022-12-05T08:16:19;47.60;;;27.00;;
11066;SDS011;29763;50.904;5.530;2022-12-05T08:18:50;42.57;;;26.07;;
11066;SDS011;29763;50.904;5.530;2022-12-05T08:21:22;42.70;;;26.77;;
11066;SDS011;29763;50.904;5.530;2022-12-05T08:23:49;46.83;;;25.43;;
11066;SDS011;29763;50.904;5.530;2022-12-05T08:26:19;44.03;;;27.00;;
11066;SDS011;29763;50.904;5.530;2022-12-05T08:29:07;41.93;;;25.27;;
11066;SDS011;29763;50.904;5.530;2022-12-05T08:31:37;44.20;;;25.17;;
11066;SDS011;29763;50.904;5.530;2022-12-05T08:34:09;43.47;;;26.00;;
11066;SDS011;29763;50.904;5.530;2022-12-05T08:36:38;43.77;;;25.40;;
11066;SDS011;29763;50.904;5.530;2022-12-05T08:39:05;38.40;;;24.27;;
11066;SDS011;29763;50.904;5.530;2022-12-05T08:41:36;41.37;;;25.13;;
11066;SDS011;29763;50.904;5.530;2022-12-05T08:44:03;43.33;;;26.43;;
11066;SDS011;29763;50.904;5.530;2022-12-05T08:46:31;43.37;;;27.13;;
11066;SDS011;29763;50.904;5.530;2022-12-05T08:49:02;44.50;;;29.23;;
11066;SDS011;29763;50.904;5.530;2022-12-05T08:51:32;53.10;;;30.53;;
11066;SDS011;29763;50.904;5.530;2022-12-05T08:53:58;59.50;;;34.90;;
11066;SDS011;29763;50.904;5.530;2022-12-05T08:56:25;58.20;;;35.30;;
11066;SDS011;29763;50.904;5.530;2022-12-05T08:58:51;49.20;;;31.20;;
11066;SDS011;29763;50.904;5.530;2022-12-05T09:01:18;47.13;;;28.33;;
11066;SDS011;29763;50.904;5.530;2022-12-05T09:03:45;42.50;;;26.13;;
11066;SDS011;29763;50.904;5.530;2022-12-05T09:06:12;38.63;;;25.13;;
11066;SDS011;29763;50.904;5.530;2022-12-05T09:08:41;40.23;;;25.13;;
11066;SDS011;29763;50.904;5.530;2022-12-05T09:11:08;42.70;;;26.27;;
11066;SDS011;29763;50.904;5.530;2022-12-05T09:13:38;45.50;;;25.30;;
11066;SDS011;29763;50.904;5.530;2022-12-05T09:16:05;43.53;;;27.93;;
11066;SDS011;29763;50.904;5.530;2022-12-05T09:18:36;43.40;;;27.50;;
11066;SDS011;29763;50.904;5.530;2022-12-05T09:23:58;47.57;;;29.10;;
11066;SDS011;29763;50.904;5.530;2022-12-05T09:26:25;39.37;;;26.20;;
11066;SDS011;29763;50.904;5.530;2022-12-05T09:28:51;44.50;;;27.83;;
11066;SDS011;29763;50.904;5.530;2022-12-05T09:31:18;42.90;;;26.93;;
11066;SDS011;29763;50.904;5.530;2022-12-05T09:33:46;41.00;;;27.33;;
11066;SDS011;29763;50.904;5.530;2022-12-05T09:36:14;40.63;;;27.00;;
11066;SDS011;29763;50.904;5.530;2022-12-05T09:38:43;40.60;;;27.33;;
11066;SDS011;29763;50.904;5.530;2022-12-05T09:46:42;44.63;;;27.40;;
11066;SDS011;29763;50.904;5.530;2022-12-05T09:49:10;38.33;;;25.50;;
11066;SDS011;29763;50.904;5.530;2022-12-05T09:51:39;42.13;;;25.87;;
11066;SDS011;29763;50.904;5.530;2022-12-05T09:54:09;42.87;;;27.00;;
11066;SDS011;29763;50.904;5.530;2022-12-05T09:56:36;38.07;;;25.43;;
11066;SDS011;29763;50.904;5.530;2022-12-05T09:59:02;41.07;;;25.90;;
11066;SDS011;29763;50.904;5.530;2022-12-05T10:07:05;38.23;;;24.13;;
11066;SDS011;29763;50.904;5.530;2022-12-05T10:12:47;31.43;;;22.13;;
11066;SDS011;29763;50.904;5.530;2022-12-05T10:18:00;27.97;;;20.53;;
11066;SDS011;29763;50.904;5.530;2022-12-05T10:20:39;29.03;;;21.43;;
11066;SDS011;29763;50.904;5.530;2022-12-05T10:26:16;31.80;;;22.20;;
11066;SDS011;29763;50.904;5.530;2022-12-05T10:28:49;33.37;;;23.30;;
11066;SDS011;29763;50.904;5.530;2022-12-05T10:31:23;29.37;;;22.33;;
11066;SDS011;29763;50.904;5.530;2022-12-05T10:34:54;31.00;;;23.10;;
11066;SDS011;29763;50.904;5.530;2022-12-05T10:39:38;34.20;;;25.43;;
11066;SDS011;29763;50.904;5.530;2022-12-05T10:42:04;34.40;;;24.87;;
11066;SDS011;29763;50.904;5.530;2022-12-05T10:44:33;33.27;;;24.93;;
11066;SDS011;29763;50.904;5.530;2022-12-05T10:46:59;32.03;;;23.20;;
11066;SDS011;29763;50.904;5.530;2022-12-05T10:49:26;31.27;;;22.70;;
11066;SDS011;29763;50.904;5.530;2022-12-05T10:51:53;33.63;;;24.77;;
11066;SDS011;29763;50.904;5.530;2022-12-05T10:54:21;32.17;;;24.70;;
11066;SDS011;29763;50.904;5.530;2022-12-05T10:56:51;33.10;;;24.87;;
11066;SDS011;29763;50.904;5.530;2022-12-05T10:59:22;35.17;;;23.17;;
11066;SDS011;29763;50.904;5.530;2022-12-05T11:01:54;37.90;;;25.43;;
11066;SDS011;29763;50.904;5.530;2022-12-05T11:04:25;32.07;;;23.20;;
11066;SDS011;29763;50.904;5.530;2022-12-05T11:07:03;33.40;;;24.10;;
11066;SDS011;29763;50.904;5.530;2022-12-05T11:09:35;35.33;;;24.67;;
11066;SDS011;29763;50.904;5.530;2022-12-05T11:12:13;33.83;;;23.10;;
11066;SDS011;29763;50.904;5.530;2022-12-05T11:14:51;32.83;;;23.33;;
11066;SDS011;29763;50.904;5.530;2022-12-05T11:17:31;28.53;;;21.53;;
11066;SDS011;29763;50.904;5.530;2022-12-05T11:19:59;30.70;;;22.43;;
11066;SDS011;29763;50.904;5.530;2022-12-05T11:22:32;31.90;;;22.87;;
11066;SDS011;29763;50.904;5.530;2022-12-05T11:24:59;34.53;;;24.93;;
11066;SDS011;29763;50.904;5.530;2022-12-05T11:27:45;35.73;;;25.10;;
11066;SDS011;29763;50.904;5.530;2022-12-05T11:32:37;33.63;;;24.07;;
11066;SDS011;29763;50.904;5.530;2022-12-05T11:37:37;30.27;;;23.17;;
11066;SDS011;29763;50.904;5.530;2022-12-05T11:52:00;32.97;;;23.70;;
11066;SDS011;29763;50.904;5.530;2022-12-05T12:06:18;26.83;;;21.07;;
11066;SDS011;29763;50.904;5.530;2022-12-05T12:11:44;29.03;;;22.00;;
11066;SDS011;29763;50.904;5.530;2022-12-05T12:14:35;26.80;;;21.83;;
11066;SDS011;29763;50.904;5.530;2022-12-05T12:25:19;35.70;;;24.67;;
11066;SDS011;29763;50.904;5.530;2022-12-05T12:30:35;26.53;;;21.27;;
11066;SDS011;29763;50.904;5.530;2022-12-05T12:41:31;22.97;;;18.47;;
11066;SDS011;29763;50.904;5.530;2022-12-05T13:04:32;22.77;;;18.87;;
11066;SDS011;29763;50.904;5.530;2022-12-05T13:10:28;23.67;;;18.90;;
11066;SDS011;29763;50.904;5.530;2022-12-05T13:13:05;29.20;;;20.00;;
11066;SDS011;29763;50.904;5.530;2022-12-05T13:15:37;27.60;;;20.67;;
11066;SDS011;29763;50.904;5.530;2022-12-05T13:18:21;27.43;;;21.70;;
11066;SDS011;29763;50.904;5.530;2022-12-05T13:21:01;29.03;;;21.47;;
11066;SDS011;29763;50.904;5.530;2022-12-05T13:23:31;27.23;;;21.10;;
11066;SDS011;29763;50.904;5.530;2022-12-05T13:26:00;27.77;;;21.90;;
11066;SDS011;29763;50.904;5.530;2022-12-05T13:28:47;27.47;;;20.17;;
11066;SDS011;29763;50.904;5.530;2022-12-05T13:31:13;26.80;;;20.17;;
11066;SDS011;29763;50.904;5.530;2022-12-05T13:36:12;26.27;;;19.77;;
11066;SDS011;29763;50.904;5.530;2022-12-05T13:39:23;27.83;;;19.83;;
11066;SDS011;29763;50.904;5.530;2022-12-05T13:42:22;27.77;;;19.73;;
11066;SDS011;29763;50.904;5.530;2022-12-05T13:53:44;24.83;;;17.80;;
11066;SDS011;29763;50.904;5.530;2022-12-05T14:07:55;29.07;;;24.37;;
11066;SDS011;29763;50.904;5.530;2022-12-05T14:15:31;25.77;;;19.23;;
11066;SDS011;29763;50.904;5.530;2022-12-05T14:21:13;22.53;;;18.30;;
11066;SDS011;29763;50.904;5.530;2022-12-05T14:37:29;23.33;;;18.73;;
11066;SDS011;29763;50.904;5.530;2022-12-05T14:45:26;21.23;;;17.53;;
11066;SDS011;29763;50.904;5.530;2022-12-05T14:47:59;24.93;;;18.23;;
11066;SDS011;29763;50.904;5.530;2022-12-05T14:50:38;22.33;;;17.83;;
11066;SDS011;29763;50.904;5.530;2022-12-05T14:55:49;21.23;;;17.13;;
11066;SDS011;29763;50.904;5.530;2022-12-05T14:58:58;21.60;;;16.77;;
11066;SDS011;29763;50.904;5.530;2022-12-05T15:01:15;19.20;;;15.30;;
11066;SDS011;29763;50.904;5.530;2022-12-05T15:03:46;20.57;;;16.03;;
11066;SDS011;29763;50.904;5.530;2022-12-05T15:06:27;20.97;;;15.87;;
11066;SDS011;29763;50.904;5.530;2022-12-05T15:08:54;20.13;;;15.77;;
11066;SDS011;29763;50.904;5.530;2022-12-05T15:11:23;20.93;;;16.90;;
11066;SDS011;29763;50.904;5.530;2022-12-05T15:14:29;22.07;;;16.17;;
11066;SDS011;29763;50.904;5.530;2022-12-05T15:16:54;20.80;;;17.07;;
11066;SDS011;29763;50.904;5.530;2022-12-05T15:19:31;21.00;;;17.17;;
11066;SDS011;29763;50.904;5.530;2022-12-05T15:22:18;23.07;;;17.50;;
11066;SDS011;29763;50.904;5.530;2022-12-05T15:24:52;23.07;;;17.37;;
11066;SDS011;29763;50.904;5.530;2022-12-05T15:27:18;22.60;;;16.60;;
11066;SDS011;29763;50.904;5.530;2022-12-05T15:29:54;22.47;;;16.33;;
11066;SDS011;29763;50.904;5.530;2022-12-05T15:32:22;22.03;;;17.57;;
11066;SDS011;29763;50.904;5.530;2022-12-05T15:34:53;23.37;;;16.87;;
11066;SDS011;29763;50.904;5.530;2022-12-05T15:40:08;22.60;;;17.27;;
11066;SDS011;29763;50.904;5.530;2022-12-05T15:42:43;25.17;;;18.53;;
11066;SDS011;29763;50.904;5.530;2022-12-05T15:48:24;24.37;;;17.80;;
11066;SDS011;29763;50.904;5.530;2022-12-05T15:50:37;21.13;;;17.40;;
11066;SDS011;29763;50.904;5.530;2022-12-05T15:56:03;21.13;;;16.87;;
11066;SDS011;29763;50.904;5.530;2022-12-05T15:58:57;22.73;;;16.70;;
11066;SDS011;29763;50.904;5.530;2022-12-05T16:01:32;25.77;;;16.27;;
11066;SDS011;29763;50.904;5.530;2022-12-05T16:04:12;22.17;;;16.63;;
11066;SDS011;29763;50.904;5.530;2022-12-05T16:06:49;23.03;;;16.70;;
11066;SDS011;29763;50.904;5.530;2022-12-05T16:09:30;22.40;;;17.03;;
11066;SDS011;29763;50.904;5.530;2022-12-05T16:12:01;23.53;;;18.77;;
11066;SDS011;29763;50.904;5.530;2022-12-05T16:14:36;29.60;;;21.70;;
11066;SDS011;29763;50.904;5.530;2022-12-05T16:17:35;25.13;;;20.27;;
11066;SDS011;29763;50.904;5.530;2022-12-05T16:20:19;24.83;;;20.67;;
11066;SDS011;29763;50.904;5.530;2022-12-05T16:22:55;28.63;;;21.80;;
11066;SDS011;29763;50.904;5.530;2022-12-05T16:25:42;25.03;;;19.83;;
11066;SDS011;29763;50.904;5.530;2022-12-05T16:30:35;19.37;;;17.03;;
11066;SDS011;29763;50.904;5.530;2022-12-05T16:33:14;20.33;;;16.80;;
11066;SDS011;29763;50.904;5.530;2022-12-05T16:35:46;28.00;;;19.53;;
11066;SDS011;29763;50.904;5.530;2022-12-05T16:38:26;19.53;;;15.90;;
11066;SDS011;29763;50.904;5.530;2022-12-05T16:41:03;20.57;;;16.03;;
11066;SDS011;29763;50.904;5.530;2022-12-05T16:48:45;23.10;;;17.90;;
11066;SDS011;29763;50.904;5.530;2022-12-05T16:51:38;26.37;;;20.90;;
11066;SDS011;29763;50.904;5.530;2022-12-05T16:54:06;23.00;;;18.27;;
11066;SDS011;29763;50.904;5.530;2022-12-05T16:56:32;26.93;;;21.87;;
11066;SDS011;29763;50.904;5.530;2022-12-05T16:59:03;29.27;;;24.00;;
11066;SDS011;29763;50.904;5.530;2022-12-05T17:01:30;27.30;;;21.87;;
11066;SDS011;29763;50.904;5.530;2022-12-05T17:04:07;26.27;;;21.13;;
11066;SDS011;29763;50.904;5.530;2022-12-05T17:06:44;20.10;;;16.80;;
11066;SDS011;29763;50.904;5.530;2022-12-05T17:09:16;21.93;;;17.87;;
11066;SDS011;29763;50.904;5.530;2022-12-05T17:11:42;22.23;;;18.07;;
11066;SDS011;29763;50.904;5.530;2022-12-05T17:14:11;25.23;;;19.43;;
11066;SDS011;29763;50.904;5.530;2022-12-05T17:16:46;26.53;;;21.00;;
11066;SDS011;29763;50.904;5.530;2022-12-05T17:19:15;23.37;;;19.27;;
11066;SDS011;29763;50.904;5.530;2022-12-05T17:21:47;24.23;;;19.63;;
11066;SDS011;29763;50.904;5.530;2022-12-05T17:24:17;24.77;;;19.93;;
11066;SDS011;29763;50.904;5.530;2022-12-05T17:26:43;24.97;;;18.47;;
11066;SDS011;29763;50.904;5.530;2022-12-05T17:29:11;20.27;;;17.23;;
11066;SDS011;29763;50.904;5.530;2022-12-05T17:31:37;20.90;;;17.93;;
11066;SDS011;29763;50.904;5.530;2022-12-05T17:34:05;21.83;;;18.03;;
11066;SDS011;29763;50.904;5.530;2022-12-05T17:36:43;21.70;;;17.00;;
11066;SDS011;29763;50.904;5.530;2022-12-05T17:39:09;21.07;;;17.80;;
11066;SDS011;29763;50.904;5.530;2022-12-05T17:41:35;23.30;;;20.43;;
11066;SDS011;29763;50.904;5.530;2022-12-05T17:44:01;21.57;;;18.30;;
11066;SDS011;29763;50.904;5.530;2022-12-05T17:46:33;20.60;;;16.87;;
11066;SDS011;29763;50.904;5.530;2022-12-05T17:48:59;22.47;;;18.67;;
11066;SDS011;29763;50.904;5.530;2022-12-05T17:51:25;24.77;;;20.67;;
11066;SDS011;29763;50.904;5.530;2022-12-05T17:53:51;28.47;;;23.13;;
11066;SDS011;29763;50.904;5.530;2022-12-05T17:56:19;27.83;;;21.33;;
11066;SDS011;29763;50.904;5.530;2022-12-05T17:58:45;22.57;;;18.77;;
11066;SDS011;29763;50.904;5.530;2022-12-05T18:01:13;23.70;;;18.50;;
11066;SDS011;29763;50.904;5.530;2022-12-05T18:03:40;22.17;;;17.07;;
11066;SDS011;29763;50.904;5.530;2022-12-05T18:06:06;23.60;;;17.20;;
11066;SDS011;29763;50.904;5.530;2022-12-05T18:08:32;20.17;;;16.33;;
11066;SDS011;29763;50.904;5.530;2022-12-05T18:10:58;19.53;;;16.37;;
11066;SDS011;29763;50.904;5.530;2022-12-05T18:13:26;20.27;;;16.93;;
11066;SDS011;29763;50.904;5.530;2022-12-05T18:15:55;21.40;;;17.10;;
11066;SDS011;29763;50.904;5.530;2022-12-05T18:18:24;20.90;;;15.93;;
11066;SDS011;29763;50.904;5.530;2022-12-05T18:21:06;19.67;;;15.63;;
11066;SDS011;29763;50.904;5.530;2022-12-05T18:23:33;18.27;;;15.60;;